• Join FlightAware (Why Join?)
  • Login
  • US Flag 
02:34PM EDT


 

Airport Tracker/Info


-or-


 

Live Flight TrackerFlight Track Log ✈ SWA3561 ✈ 28-Apr-2013 ✈ KDAL - KSAT

Flight Track Log - Related Links

Times and Time Zones

All times are in EDT time to prevent confusion due to time zone crossing. See the SWA3561 flight status page for this flight to view local times or setup timezone preferences in your user account.

Time Position Orientation Groundspeed Altitude Reporting Facility
EDT Latitude Longitude Course Direction KTS MPH feet Rate Location/Type
09:28AM 32.8167 -96.8167 191° South 182 209 2,200  Level Dallas / Fort Worth TRACON
09:30AM 32.7003 -96.8086 177° South 226 260 9,100 2,880 Climbing Fort Worth Center
09:31AM 32.6192 -96.8583 207° Southwest 301 346 11,000 2,580 Climbing Fort Worth Center
09:32AM 32.5358 -96.9083 207° Southwest 364 419 14,300 3,360 Climbing Fort Worth Center
09:33AM 32.3713 -97.0918 191° South  Level Estimated
09:33AM 32.4256 -96.9681 205° Southwest 391 450 17,800  Level Fort Worth Center
09:34AM 32.3253 -96.9931 192° South 403 464 20,600 5,580 Climbing Fort Worth Center
09:35AM 32.2064 -97.0256 193° South 409 471 29,000 2,640 Climbing Fort Worth Center
09:36AM 32.0897 -97.0603 194° South 415 478 25,900 120 Descending Fort Worth Center
09:37AM 31.9811 -97.0900 193° South 416 479 29,300 2,040 Climbing Fort Worth Center
09:38AM 31.8747 -97.1222 194° South 400 460 30,000 300 Climbing Fort Worth Center
09:39AM 31.7600 -97.1519 192° South 406 467 30,000  Level Fort Worth Center
09:40AM 31.5647 -97.2061 193° South 428 493 30,000  Level Houston Center
09:41AM 31.4494 -97.2386 194° South 425 489 30,000  Level Houston Center
09:42AM 31.3361 -97.2700 193° South 417 480 30,000  Level Houston Center
09:43AM 31.2211 -97.3014 193° South 419 482 30,000  Level Houston Center
09:44AM 31.1056 -97.3342 194° South 422 486 30,000  Level Houston Center
09:45AM 30.9911 -97.3650 193° South 425 489 30,000 -420 Level Houston Center
09:46AM 30.8589 -97.4008 193° South 425 489 29,200 -960 Descending Houston Center
09:47AM 30.7422 -97.4308 192° South 427 491 28,100 -1,080 Descending Houston Center
09:48AM 30.6228 -97.4633 193° South 435 501 27,100 -1,080 Descending Houston Center
09:50AM 30.5078 -97.4942 193° South 425 489 26,000 -1,080 Descending Houston Center
09:51AM 30.3964 -97.5261 194° South 411 473 24,900 -1,140 Descending Houston Center
09:52AM 30.3008 -97.5828 207° Southwest 384 442 23,700 -1,380 Descending Houston Center
09:53AM 30.2069 -97.6497 212° Southwest 390 449 22,100 -1,980 Descending Houston Center
09:53AM 30.1744 -97.6719 211° Southwest 386 444 21,100 -2,520 Descending Houston Center
09:54AM 30.1156 -97.7108 210° Southwest 377 434 19,500 -2,520 Descending Houston Center
09:55AM 30.0239 -97.7753 211° Southwest 364 419 16,800 -2,760 Descending Houston Center
09:56AM 29.9303 -97.8408 211° Southwest 362 417 13,900 -2,520 Descending Houston Center
09:57AM 29.8706 -97.9239 230° Southwest 344 396 11,700 -2,100 Descending Houston Center
09:58AM 29.8300 -98.0222 245° Southwest 337 388 9,700 -1,680 Descending Houston Center
09:59AM 29.7942 -98.1086 244° Southwest 296 341 8,400 -1,380 Descending Houston Center
10:00AM 29.7553 -98.1983 243° Southwest 289 333 6,900 -1,380 Descending Houston Center
10:01AM 29.7253 -98.2711 245° Southwest 275 316 5,700 -1,500 Descending Houston Center
10:02AM 29.6986 -98.3442 247° West 264 304 4,100 -1,440 Descending Houston Center
10:03AM 29.6678 -98.4200 245° Southwest 261 300 3,000 -600 Descending Houston Center
10:04AM 29.6381 -98.4861 243° Southwest 205 236 2,900 -300 Descending Houston Center
10:05AM 29.6081 -98.5258 229° Southwest 145 167 2,500 -540 Descending Houston Center
10:06AM 29.5725 -98.5253 179° South 119 137 1,800 -720 Descending Houston Center
10:07AM 29.5464 -98.4922 132° Southeast 133 153 1,000 -840 Descending Houston Center
10:09AM 29.5340 -98.4691 12° North  Level Estimated
10:16AM 29.5333 -98.4667 16° North  Level FlightAware Approximate